sensor_id;sensor_type;location;lat;lon;timestamp;pressure;altitude;pressure_sealevel;temperature;humidity
70200;BME280;57587;55.688;37.600;2022-12-10T00:01:29;99401.53;;;-0.28;66.16
70200;BME280;57587;55.688;37.600;2022-12-10T00:03:57;99398.88;;;-0.28;66.40
70200;BME280;57587;55.688;37.600;2022-12-10T00:06:27;99414.91;;;-0.20;66.35
70200;BME280;57587;55.688;37.600;2022-12-10T00:08:54;99407.63;;;-0.16;66.26
70200;BME280;57587;55.688;37.600;2022-12-10T00:11:22;99407.63;;;-0.16;66.43
70200;BME280;57587;55.688;37.600;2022-12-10T00:13:50;99410.16;;;-0.15;66.46
70200;BME280;57587;55.688;37.600;2022-12-10T00:16:19;99414.69;;;-0.06;65.88
70200;BME280;57587;55.688;37.600;2022-12-10T00:18:46;99415.53;;;-0.05;66.13
70200;BME280;57587;55.688;37.600;2022-12-10T00:21:16;99412.28;;;-0.20;66.55
70200;BME280;57587;55.688;37.600;2022-12-10T00:23:44;99408.47;;;-0.16;66.90
70200;BME280;57587;55.688;37.600;2022-12-10T00:26:34;99407.88;;;-0.08;66.56
70200;BME280;57587;55.688;37.600;2022-12-10T00:29:03;99399.16;;;-0.09;66.44
70200;BME280;57587;55.688;37.600;2022-12-10T00:31:32;99405.72;;;-0.14;66.35
70200;BME280;57587;55.688;37.600;2022-12-10T00:34:03;99399.63;;;-0.15;66.20
70200;BME280;57587;55.688;37.600;2022-12-10T00:36:33;99393.31;;;-0.12;66.43
70200;BME280;57587;55.688;37.600;2022-12-10T00:39:01;99389.13;;;-0.15;66.71
70200;BME280;57587;55.688;37.600;2022-12-10T00:41:29;99392.09;;;-0.31;67.10
70200;BME280;57587;55.688;37.600;2022-12-10T00:43:56;99385.75;;;-0.28;66.48
70200;BME280;57587;55.688;37.600;2022-12-10T00:46:23;99387.53;;;-0.29;66.89
70200;BME280;57587;55.688;37.600;2022-12-10T00:48:51;99396.16;;;-0.27;67.14
70200;BME280;57587;55.688;37.600;2022-12-10T00:51:21;99380.97;;;-0.23;66.91
70200;BME280;57587;55.688;37.600;2022-12-10T00:53:50;99376.19;;;-0.29;67.12
70200;BME280;57587;55.688;37.600;2022-12-10T00:56:23;99391.38;;;-0.33;66.90
70200;BME280;57587;55.688;37.600;2022-12-10T00:58:50;99378.09;;;-0.31;66.98
70200;BME280;57587;55.688;37.600;2022-12-10T01:01:19;99360.44;;;-0.18;66.69
70200;BME280;57587;55.688;37.600;2022-12-10T01:03:48;99349.66;;;-0.15;66.55
70200;BME280;57587;55.688;37.600;2022-12-10T01:06:25;99336.88;;;-0.08;66.48
70200;BME280;57587;55.688;37.600;2022-12-10T01:08:54;99336.13;;;-0.10;66.37
70200;BME280;57587;55.688;37.600;2022-12-10T01:11:25;99354.69;;;-0.23;66.82
70200;BME280;57587;55.688;37.600;2022-12-10T01:13:52;99349.66;;;-0.15;66.79
70200;BME280;57587;55.688;37.600;2022-12-10T01:16:24;99344.75;;;-0.08;66.75
70200;BME280;57587;55.688;37.600;2022-12-10T01:18:58;99346.06;;;-0.03;66.42
70200;BME280;57587;55.688;37.600;2022-12-10T01:21:27;99339.72;;;0.00;66.38
70200;BME280;57587;55.688;37.600;2022-12-10T01:23:55;99342.72;;;-0.05;66.41
70200;BME280;57587;55.688;37.600;2022-12-10T01:26:31;99339.13;;;-0.04;66.53
70200;BME280;57587;55.688;37.600;2022-12-10T01:29:01;99345.25;;;-0.03;66.29
70200;BME280;57587;55.688;37.600;2022-12-10T01:31:34;99350.50;;;-0.03;66.24
70200;BME280;57587;55.688;37.600;2022-12-10T01:34:02;99345.09;;;-0.02;66.56
70200;BME280;57587;55.688;37.600;2022-12-10T01:36:32;99327.63;;;0.09;66.38
70200;BME280;57587;55.688;37.600;2022-12-10T01:39:01;99324.63;;;0.13;66.04
70200;BME280;57587;55.688;37.600;2022-12-10T01:41:35;99339.34;;;0.16;65.94
70200;BME280;57587;55.688;37.600;2022-12-10T01:46:38;99350.06;;;0.24;65.76
70200;BME280;57587;55.688;37.600;2022-12-10T01:49:10;99352.44;;;0.27;65.70
70200;BME280;57587;55.688;37.600;2022-12-10T01:51:40;99348.16;;;0.26;65.48
70200;BME280;57587;55.688;37.600;2022-12-10T01:54:12;99349.63;;;0.19;65.32
70200;BME280;57587;55.688;37.600;2022-12-10T01:56:42;99345.28;;;0.18;65.53
70200;BME280;57587;55.688;37.600;2022-12-10T01:59:10;99350.06;;;0.24;64.91
70200;BME280;57587;55.688;37.600;2022-12-10T02:01:51;99351.13;;;0.21;65.55
70200;BME280;57587;55.688;37.600;2022-12-10T02:04:34;99349.63;;;0.08;65.41
70200;BME280;57587;55.688;37.600;2022-12-10T02:07:23;99349.25;;;0.12;65.95
70200;BME280;57587;55.688;37.600;2022-12-10T02:10:39;99344.38;;;0.08;65.88
70200;BME280;57587;55.688;37.600;2022-12-10T02:13:04;99357.50;;;0.19;65.48
70200;BME280;57587;55.688;37.600;2022-12-10T02:15:43;99355.31;;;0.24;65.49
70200;BME280;57587;55.688;37.600;2022-12-10T02:18:20;99361.06;;;0.29;64.80
70200;BME280;57587;55.688;37.600;2022-12-10T02:20:56;99353.41;;;0.26;64.88
70200;BME280;57587;55.688;37.600;2022-12-10T02:23:28;99349.56;;;0.30;64.97
70200;BME280;57587;55.688;37.600;2022-12-10T02:31:49;99343.31;;;0.42;64.39
70200;BME280;57587;55.688;37.600;2022-12-10T02:34:19;99343.81;;;0.36;64.76
70200;BME280;57587;55.688;37.600;2022-12-10T02:36:51;99353.59;;;0.45;64.58
70200;BME280;57587;55.688;37.600;2022-12-10T02:39:25;99348.22;;;0.47;64.13
70200;BME280;57587;55.688;37.600;2022-12-10T02:41:58;99336.25;;;0.43;64.78
70200;BME280;57587;55.688;37.600;2022-12-10T02:44:28;99337.34;;;0.40;64.53
70200;BME280;57587;55.688;37.600;2022-12-10T02:46:58;99330.91;;;0.33;64.72
70200;BME280;57587;55.688;37.600;2022-12-10T02:49:31;99331.13;;;0.41;64.77
70200;BME280;57587;55.688;37.600;2022-12-10T02:52:13;99336.06;;;0.35;64.48
70200;BME280;57587;55.688;37.600;2022-12-10T02:54:45;99333.16;;;0.38;64.56
70200;BME280;57587;55.688;37.600;2022-12-10T03:00:24;99318.53;;;0.45;64.14
70200;BME280;57587;55.688;37.600;2022-12-10T03:03:29;99329.66;;;0.49;64.26
70200;BME280;57587;55.688;37.600;2022-12-10T03:06:16;99318.94;;;0.40;64.17
70200;BME280;57587;55.688;37.600;2022-12-10T03:08:51;99309.66;;;0.46;64.24
70200;BME280;57587;55.688;37.600;2022-12-10T03:11:22;99319.94;;;0.49;64.45
70200;BME280;57587;55.688;37.600;2022-12-10T03:16:31;99322.72;;;0.48;64.00
70200;BME280;57587;55.688;37.600;2022-12-10T03:19:04;99323.47;;;0.38;64.17
70200;BME280;57587;55.688;37.600;2022-12-10T03:21:34;99322.16;;;0.33;63.86
70200;BME280;57587;55.688;37.600;2022-12-10T03:24:08;99325.88;;;0.30;64.57
70200;BME280;57587;55.688;37.600;2022-12-10T03:26:37;99320.75;;;0.29;64.80
70200;BME280;57587;55.688;37.600;2022-12-10T03:29:09;99317.88;;;0.32;64.09
70200;BME280;57587;55.688;37.600;2022-12-10T03:31:37;99313.06;;;0.37;64.41
70200;BME280;57587;55.688;37.600;2022-12-10T03:34:05;99318.97;;;0.29;64.66
70200;BME280;57587;55.688;37.600;2022-12-10T03:36:34;99327.69;;;0.30;64.77
70200;BME280;57587;55.688;37.600;2022-12-10T03:39:01;99326.63;;;0.21;65.27
70200;BME280;57587;55.688;37.600;2022-12-10T03:41:28;99335.25;;;0.23;65.23
70200;BME280;57587;55.688;37.600;2022-12-10T03:43:57;99331.41;;;0.27;64.77
70200;BME280;57587;55.688;37.600;2022-12-10T03:46:26;99330.06;;;0.33;65.06
70200;BME280;57587;55.688;37.600;2022-12-10T03:48:54;99322.56;;;0.28;65.54
70200;BME280;57587;55.688;37.600;2022-12-10T03:51:21;99326.47;;;0.34;65.02
70200;BME280;57587;55.688;37.600;2022-12-10T03:53:49;99327.81;;;0.28;64.90
70200;BME280;57587;55.688;37.600;2022-12-10T03:56:17;99324.56;;;0.36;65.02
70200;BME280;57587;55.688;37.600;2022-12-10T03:58:45;99333.50;;;0.44;64.92
70200;BME280;57587;55.688;37.600;2022-12-10T04:01:43;99330.88;;;0.44;64.32
70200;BME280;57587;55.688;37.600;2022-12-10T04:04:11;99335.41;;;0.42;65.21
70200;BME280;57587;55.688;37.600;2022-12-10T04:07:01;99310.84;;;0.21;65.26
70200;BME280;57587;55.688;37.600;2022-12-10T04:10:26;99317.09;;;0.09;65.79
70200;BME280;57587;55.688;37.600;2022-12-10T04:19:12;99317.97;;;-0.02;66.27
70200;BME280;57587;55.688;37.600;2022-12-10T04:21:58;99314.00;;;0.04;65.89
70200;BME280;57587;55.688;37.600;2022-12-10T04:53:17;99321.38;;;0.21;66.18
70200;BME280;57587;55.688;37.600;2022-12-10T04:55:44;99320.19;;;0.25;65.87
70200;BME280;57587;55.688;37.600;2022-12-10T04:58:12;99310.34;;;0.27;65.72
70200;BME280;57587;55.688;37.600;2022-12-10T05:00:39;99311.53;;;0.34;65.35
70200;BME280;57587;55.688;37.600;2022-12-10T05:03:08;99317.13;;;0.41;65.32
70200;BME280;57587;55.688;37.600;2022-12-10T05:05:47;99317.63;;;0.35;65.45
70200;BME280;57587;55.688;37.600;2022-12-10T05:08:44;99298.25;;;0.25;65.31
70200;BME280;57587;55.688;37.600;2022-12-10T05:11:22;99310.41;;;0.16;65.81
70200;BME280;57587;55.688;37.600;2022-12-10T05:14:00;99305.06;;;0.27;65.77
70200;BME280;57587;55.688;37.600;2022-12-10T05:22:42;99306.91;;;0.15;66.64
70200;BME280;57587;55.688;37.600;2022-12-10T05:26:23;99331.41;;;0.27;66.30
70200;BME280;57587;55.688;37.600;2022-12-10T05:29:18;99323.97;;;0.32;66.27
70200;BME280;57587;55.688;37.600;2022-12-10T05:33:11;99305.25;;;0.14;66.00
70200;BME280;57587;55.688;37.600;2022-12-10T05:35:38;99329.06;;;0.13;66.31
70200;BME280;57587;55.688;37.600;2022-12-10T05:38:05;99327.63;;;0.09;66.97
70200;BME280;57587;55.688;37.600;2022-12-10T05:40:36;99328.94;;;0.03;66.99
70200;BME280;57587;55.688;37.600;2022-12-10T05:43:03;99333.59;;;0.11;67.25
70200;BME280;57587;55.688;37.600;2022-12-10T05:45:32;99336.72;;;0.16;67.11
70200;BME280;57587;55.688;37.600;2022-12-10T05:47:59;99334.75;;;0.18;67.14
70200;BME280;57587;55.688;37.600;2022-12-10T05:50:27;99328.81;;;0.16;66.97
70200;BME280;57587;55.688;37.600;2022-12-10T05:53:06;99323.06;;;0.22;66.34
70200;BME280;57587;55.688;37.600;2022-12-10T05:57:48;99302.50;;;0.16;66.23
70200;BME280;57587;55.688;37.600;2022-12-10T06:14:57;99302.34;;;0.29;66.81
70200;BME280;57587;55.688;37.600;2022-12-10T06:17:25;99310.56;;;0.35;66.74
70200;BME280;57587;55.688;37.600;2022-12-10T06:19:52;99300.41;;;0.31;66.63
70200;BME280;57587;55.688;37.600;2022-12-10T06:22:19;99310.31;;;0.38;66.63
70200;BME280;57587;55.688;37.600;2022-12-10T06:24:46;99307.44;;;0.41;66.84
70200;BME280;57587;55.688;37.600;2022-12-10T06:27:12;99302.75;;;0.45;66.76
70200;BME280;57587;55.688;37.600;2022-12-10T06:29:40;99296.50;;;0.46;67.10
70200;BME280;57587;55.688;37.600;2022-12-10T06:32:07;99299.56;;;0.62;66.09
70200;BME280;57587;55.688;37.600;2022-12-10T06:34:34;99300.56;;;0.71;65.79
70200;BME280;57587;55.688;37.600;2022-12-10T06:37:08;99301.19;;;0.75;65.50
70200;BME280;57587;55.688;37.600;2022-12-10T06:39:35;99291.75;;;0.72;65.38
70200;BME280;57587;55.688;37.600;2022-12-10T06:42:02;99284.94;;;0.69;65.43
70200;BME280;57587;55.688;37.600;2022-12-10T06:44:29;99296.28;;;0.70;65.45
70200;BME280;57587;55.688;37.600;2022-12-10T06:46:56;99295.50;;;0.58;66.01
70200;BME280;57587;55.688;37.600;2022-12-10T06:49:26;99299.22;;;0.56;66.27
70200;BME280;57587;55.688;37.600;2022-12-10T06:51:53;99293.13;;;0.55;66.25
70200;BME280;57587;55.688;37.600;2022-12-10T06:54:20;99290.63;;;0.54;66.09
70200;BME280;57587;55.688;37.600;2022-12-10T06:56:47;99298.84;;;0.60;66.43
70200;BME280;57587;55.688;37.600;2022-12-10T06:59:16;99299.63;;;0.72;66.39
70200;BME280;57587;55.688;37.600;2022-12-10T07:01:43;99295.13;;;0.63;66.39
70200;BME280;57587;55.688;37.600;2022-12-10T07:04:10;99300.00;;;0.67;66.52
70200;BME280;57587;55.688;37.600;2022-12-10T07:06:38;99291.47;;;0.54;66.35
70200;BME280;57587;55.688;37.600;2022-12-10T07:09:05;99302.78;;;0.66;66.56
70200;BME280;57587;55.688;37.600;2022-12-10T07:11:32;99294.63;;;0.69;66.46
70200;BME280;57587;55.688;37.600;2022-12-10T07:13:59;99299.13;;;0.78;66.10
70200;BME280;57587;55.688;37.600;2022-12-10T07:16:32;99301.88;;;0.77;66.35
70200;BME280;57587;55.688;37.600;2022-12-10T07:19:01;99299.38;;;0.75;66.52
70200;BME280;57587;55.688;37.600;2022-12-10T07:21:33;99297.13;;;0.71;66.19
70200;BME280;57587;55.688;37.600;2022-12-10T07:24:07;99305.66;;;0.63;66.64
70200;BME280;57587;55.688;37.600;2022-12-10T07:29:54;99312.91;;;0.71;66.40
70200;BME280;57587;55.688;37.600;2022-12-10T07:32:21;99304.91;;;0.72;66.97
70200;BME280;57587;55.688;37.600;2022-12-10T07:34:48;99302.00;;;0.75;66.61
70200;BME280;57587;55.688;37.600;2022-12-10T07:37:15;99306.38;;;0.86;66.83
70200;BME280;57587;55.688;37.600;2022-12-10T07:39:42;99297.13;;;0.91;66.33
70200;BME280;57587;55.688;37.600;2022-12-10T07:42:11;99298.72;;;1.04;65.89
70200;BME280;57587;55.688;37.600;2022-12-10T07:44:38;99301.31;;;1.15;65.56
70200;BME280;57587;55.688;37.600;2022-12-10T07:47:05;99288.81;;;1.17;65.19
70200;BME280;57587;55.688;37.600;2022-12-10T07:49:32;99293.28;;;1.26;65.24
70200;BME280;57587;55.688;37.600;2022-12-10T07:51:59;99291.38;;;1.28;64.88
70200;BME280;57587;55.688;37.600;2022-12-10T07:54:26;99284.84;;;1.32;65.24
70200;BME280;57587;55.688;37.600;2022-12-10T07:56:53;99286.69;;;1.42;65.05
70200;BME280;57587;55.688;37.600;2022-12-10T07:59:20;99281.06;;;1.46;64.80
70200;BME280;57587;55.688;37.600;2022-12-10T08:01:47;99278.97;;;1.50;63.86
70200;BME280;57587;55.688;37.600;2022-12-10T08:04:48;99283.44;;;1.59;63.89
70200;BME280;57587;55.688;37.600;2022-12-10T08:17:01;99290.13;;;1.63;63.54
70200;BME280;57587;55.688;37.600;2022-12-10T08:19:28;99289.13;;;1.64;63.77
70200;BME280;57587;55.688;37.600;2022-12-10T08:21:57;99285.41;;;1.67;63.41
70200;BME280;57587;55.688;37.600;2022-12-10T08:24:24;99291.69;;;1.75;63.46
70200;BME280;57587;55.688;37.600;2022-12-10T08:26:51;99290.03;;;1.74;63.15
70200;BME280;57587;55.688;37.600;2022-12-10T08:29:18;99289.59;;;1.79;63.35
70200;BME280;57587;55.688;37.600;2022-12-10T08:31:45;99283.94;;;1.83;63.13
70200;BME280;57587;55.688;37.600;2022-12-10T08:34:16;99275.75;;;1.87;62.93
70200;BME280;57587;55.688;37.600;2022-12-10T08:36:44;99276.03;;;1.83;63.12
70200;BME280;57587;55.688;37.600;2022-12-10T09:11:52;99268.13;;;1.83;63.75
70200;BME280;57587;55.688;37.600;2022-12-10T09:14:19;99274.59;;;1.79;63.89
70200;BME280;57587;55.688;37.600;2022-12-10T09:16:47;99264.06;;;1.79;64.01
70200;BME280;57587;55.688;37.600;2022-12-10T09:19:20;99273.25;;;1.85;64.02
70200;BME280;57587;55.688;37.600;2022-12-10T09:22:19;99265.59;;;1.82;63.98
70200;BME280;57587;55.688;37.600;2022-12-10T09:24:56;99274.59;;;1.79;64.36
70200;BME280;57587;55.688;37.600;2022-12-10T09:58:26;99257.34;;;1.56;65.91
70200;BME280;57587;55.688;37.600;2022-12-10T10:24:58;99242.19;;;1.48;66.83
70200;BME280;57587;55.688;37.600;2022-12-10T11:24:30;99169.78;;;1.02;70.36
70200;BME280;57587;55.688;37.600;2022-12-10T11:57:03;99149.03;;;1.19;70.63
70200;BME280;57587;55.688;37.600;2022-12-10T12:38:51;99126.88;;;1.41;69.15
70200;BME280;57587;55.688;37.600;2022-12-10T16:24:14;98825.91;;;1.45;72.72
70200;BME280;57587;55.688;37.600;2022-12-10T16:26:43;98849.59;;;1.65;72.57
70200;BME280;57587;55.688;37.600;2022-12-10T16:29:10;98859.69;;;1.69;72.38
70200;BME280;57587;55.688;37.600;2022-12-10T16:31:39;98858.72;;;1.70;72.49
70200;BME280;57587;55.688;37.600;2022-12-10T16:34:06;98855.13;;;1.71;72.67
70200;BME280;57587;55.688;37.600;2022-12-10T16:36:34;98860.41;;;1.71;72.39
70200;BME280;57587;55.688;37.600;2022-12-10T16:39:02;98861.34;;;1.70;72.65
70200;BME280;57587;55.688;37.600;2022-12-10T16:41:29;98865.09;;;1.77;72.23
70200;BME280;57587;55.688;37.600;2022-12-10T16:43:57;98861.63;;;1.77;72.74
70200;BME280;57587;55.688;37.600;2022-12-10T16:46:24;98861.75;;;1.75;72.50
70200;BME280;57587;55.688;37.600;2022-12-10T16:48:51;98862.84;;;1.82;72.49
70200;BME280;57587;55.688;37.600;2022-12-10T16:53:48;98858.13;;;1.86;72.02
70200;BME280;57587;55.688;37.600;2022-12-10T16:56:16;98859.28;;;1.74;72.54
70200;BME280;57587;55.688;37.600;2022-12-10T16:58:44;98860.19;;;1.82;72.40
70200;BME280;57587;55.688;37.600;2022-12-10T17:01:25;98855.81;;;2.01;73.92
70200;BME280;57587;55.688;37.600;2022-12-10T17:03:54;98837.44;;;2.09;72.63
70200;BME280;57587;55.688;37.600;2022-12-10T17:06:22;98835.78;;;2.08;72.11
70200;BME280;57587;55.688;37.600;2022-12-10T17:08:49;98833.94;;;1.91;72.36
70200;BME280;57587;55.688;37.600;2022-12-10T17:11:21;98837.91;;;1.95;72.05
70200;BME280;57587;55.688;37.600;2022-12-10T17:14:29;98834.69;;;2.01;72.06
70200;BME280;57587;55.688;37.600;2022-12-10T17:16:58;98834.56;;;2.02;71.88
70200;BME280;57587;55.688;37.600;2022-12-10T17:19:28;98830.88;;;1.95;71.90
70200;BME280;57587;55.688;37.600;2022-12-10T17:21:55;98824.34;;;1.90;71.99
70200;BME280;57587;55.688;37.600;2022-12-10T17:24:22;98833.09;;;1.90;72.50
70200;BME280;57587;55.688;37.600;2022-12-10T17:26:50;98826.84;;;1.91;72.36
70200;BME280;57587;55.688;37.600;2022-12-10T17:29:23;98821.03;;;1.88;72.63
70200;BME280;57587;55.688;37.600;2022-12-10T17:31:53;98817.03;;;1.83;72.25
70200;BME280;57587;55.688;37.600;2022-12-10T17:34:20;98812.72;;;1.82;72.63
70200;BME280;57587;55.688;37.600;2022-12-10T17:36:51;98804.28;;;1.79;73.32
70200;BME280;57587;55.688;37.600;2022-12-10T17:39:20;98803.19;;;1.72;72.87
70200;BME280;57587;55.688;37.600;2022-12-10T17:41:49;98798.47;;;1.75;73.11
70200;BME280;57587;55.688;37.600;2022-12-10T17:44:17;98796.81;;;1.74;72.62
70200;BME280;57587;55.688;37.600;2022-12-10T17:46:44;98787.13;;;1.65;73.20
70200;BME280;57587;55.688;37.600;2022-12-10T17:49:13;98794.59;;;1.70;73.23
70200;BME280;57587;55.688;37.600;2022-12-10T17:51:41;98794.31;;;1.73;73.07
70200;BME280;57587;55.688;37.600;2022-12-10T17:54:09;98790.72;;;1.74;73.27
70200;BME280;57587;55.688;37.600;2022-12-10T17:56:36;98793.78;;;1.69;73.03
70200;BME280;57587;55.688;37.600;2022-12-10T17:59:03;98779.06;;;1.67;73.59
70200;BME280;57587;55.688;37.600;2022-12-10T18:01:30;98786.84;;;1.68;73.64
70200;BME280;57587;55.688;37.600;2022-12-10T18:03:58;98776.53;;;1.75;73.56
70200;BME280;57587;55.688;37.600;2022-12-10T18:06:27;98779.56;;;1.80;73.13
70200;BME280;57587;55.688;37.600;2022-12-10T18:08:57;98772.84;;;1.85;72.70
70200;BME280;57587;55.688;37.600;2022-12-10T18:11:28;98773.84;;;1.84;72.77
70200;BME280;57587;55.688;37.600;2022-12-10T18:13:56;98762.88;;;1.89;73.12
70200;BME280;57587;55.688;37.600;2022-12-10T18:16:26;98754.78;;;1.91;72.75
70200;BME280;57587;55.688;37.600;2022-12-10T18:18:58;98752.97;;;1.91;72.67
70200;BME280;57587;55.688;37.600;2022-12-10T18:21:26;98748.69;;;1.90;72.75
70200;BME280;57587;55.688;37.600;2022-12-10T18:23:53;98747.88;;;1.90;72.54
70200;BME280;57587;55.688;37.600;2022-12-10T18:31:21;98724.03;;;1.81;72.49
70200;BME280;57587;55.688;37.600;2022-12-10T18:33:52;98728.41;;;1.91;72.77
70200;BME280;57587;55.688;37.600;2022-12-10T18:36:27;98724.41;;;1.87;72.65
70200;BME280;57587;55.688;37.600;2022-12-10T18:38:55;98732.34;;;1.87;72.58
70200;BME280;57587;55.688;37.600;2022-12-10T18:41:23;98740.31;;;1.95;72.57
70200;BME280;57587;55.688;37.600;2022-12-10T18:43:50;98734.38;;;1.93;72.58
70200;BME280;57587;55.688;37.600;2022-12-10T18:46:27;98735.28;;;2.01;72.61
70200;BME280;57587;55.688;37.600;2022-12-10T18:48:55;98735.28;;;2.01;72.27
70200;BME280;57587;55.688;37.600;2022-12-10T18:51:23;98722.63;;;2.05;72.34
70200;BME280;57587;55.688;37.600;2022-12-10T18:53:50;98724.19;;;1.98;72.52
70200;BME280;57587;55.688;37.600;2022-12-10T18:56:58;98723.88;;;2.01;72.27
70200;BME280;57587;55.688;37.600;2022-12-10T19:00:09;98714.31;;;2.00;72.24
70200;BME280;57587;55.688;37.600;2022-12-10T19:02:32;98715.84;;;2.02;72.40
70200;BME280;57587;55.688;37.600;2022-12-10T19:04:59;98703.69;;;2.10;72.21
70200;BME280;57587;55.688;37.600;2022-12-10T19:07:26;98721.16;;;2.11;72.13
70200;BME280;57587;55.688;37.600;2022-12-10T19:09:56;98713.34;;;2.19;72.16
70200;BME280;57587;55.688;37.600;2022-12-10T19:12:48;98720.13;;;2.21;72.08
70200;BME280;57587;55.688;37.600;2022-12-10T19:15:17;98728.13;;;2.29;71.60
70200;BME280;57587;55.688;37.600;2022-12-10T19:17:46;98717.25;;;2.33;71.63
70200;BME280;57587;55.688;37.600;2022-12-10T19:20:19;98714.03;;;2.39;71.38
70200;BME280;57587;55.688;37.600;2022-12-10T19:22:46;98704.94;;;2.41;71.22
70200;BME280;57587;55.688;37.600;2022-12-10T19:25:39;98710.47;;;2.48;70.86
70200;BME280;57587;55.688;37.600;2022-12-10T19:28:06;98705.50;;;2.45;70.77
70200;BME280;57587;55.688;37.600;2022-12-10T19:30:33;98693.25;;;2.44;70.79
70200;BME280;57587;55.688;37.600;2022-12-10T19:33:00;98687.00;;;2.45;70.89
70200;BME280;57587;55.688;37.600;2022-12-10T19:35:28;98684.97;;;2.39;70.84
70200;BME280;57587;55.688;37.600;2022-12-10T19:38:20;98674.56;;;2.37;71.08
70200;BME280;57587;55.688;37.600;2022-12-10T19:40:49;98665.81;;;2.37;71.13
70200;BME280;57587;55.688;37.600;2022-12-10T19:43:17;98670.47;;;2.43;71.00
70200;BME280;57587;55.688;37.600;2022-12-10T19:45:44;98665.66;;;2.38;70.99
70200;BME280;57587;55.688;37.600;2022-12-10T19:48:11;98658.88;;;2.36;71.23
70200;BME280;57587;55.688;37.600;2022-12-10T19:50:43;98657.88;;;2.37;71.21
70200;BME280;57587;55.688;37.600;2022-12-10T19:53:11;98670.78;;;2.40;71.04
70200;BME280;57587;55.688;37.600;2022-12-10T19:55:38;98657.59;;;2.40;70.98
70200;BME280;57587;55.688;37.600;2022-12-10T19:58:14;98650.19;;;2.43;71.00
70200;BME280;57587;55.688;37.600;2022-12-10T20:05:18;98660.22;;;2.40;71.05
70200;BME280;57587;55.688;37.600;2022-12-10T20:22:07;98625.03;;;2.13;71.47
70200;BME280;57587;55.688;37.600;2022-12-10T20:39:38;98634.44;;;2.34;71.59
